Great Valley, NY

2:57 PM EDT on August 30, 2016 (GMT -0400)
Near Base of Holiday Valley | | Change Station

Elev 1512 ft 42.26 °N, 78.64 °W | Updated 5 minutes ago

Clear
Clear
81.5 °F
Feels Like 84 °F
N
0.0
Wind Variable Wind from West

Today
High -- | Low -- °F
--% Chance of Precip.
Yesterday
High -- | Low -- °F
Precip. -- in
Pressure 30.18 in
Visibility 10.0 miles
Clouds Clear
Heat Index 84 °F
Dew Point 66 °F
Humidity 59%
Rainfall 0.00 in
Snow Depth Not available.
6:38 AM 7:50 PM
Waning Crescent, 3% visible
METAR KOLE 301835Z AUTO 22006KT 10SM CLR 23/13 A3018 RMK AO2 LTG DSNT N
Pressure 30.18 in
Visibility 10.0 miles
Clouds Clear
Heat Index 84 °F
Dew Point 66 °F
Humidity 59%
Rainfall 0.00 in
Snow Depth Not available.
6:38 AM 7:50 PM
Waning Crescent, 3% visible
METAR KOLE 301835Z AUTO 22006KT 10SM CLR 23/13 A3018 RMK AO2 LTG DSNT N

10-Day Weather Forecast

Almanac

Astronomy

Aug. 30, 2016 Rise Set
Actual Time
Civil Twilight
Nautical Twilight
Astronomical Twilight
Moon
Length of Visible Light
Length of Day
Tomorrow will be .
, % of the Moon is Illuminated

Today's Extremes

State Highs State Lows

Community

WunderPhotos

Upload Photos

1,935,875 photos uploaded!

WunderBlog® & News

Nearby

Air Quality

  Air Quality AQ Index Pollutant
Not available.

Snow Depth

Station Depth Elevation

Earthquake Activity

City Distance Mag. Time & Date
Minimum magnitude displayed is 2.5.

Coastal Water Temperatures

Place Temperature

Stations

Nearby Weather Stations

Station Location Temp. Windchill Dew Point Humidity Wind Precip. Elev Updated Type
                   

Watches & Warnings

There are currently no watches in effect.